createdAt,value
2018-10-02T00:00:44.456Z,80.40
2018-10-02T00:03:12.233Z,80.40
2018-10-02T00:05:39.937Z,80.50
2018-10-02T00:08:07.683Z,80.50
2018-10-02T00:10:35.441Z,80.50
2018-10-02T00:13:08.689Z,81.40
2018-10-02T00:15:36.574Z,81.30
2018-10-02T00:18:04.252Z,81.70
2018-10-02T00:20:32.297Z,82.10
2018-10-02T00:23:00.173Z,83.00
2018-10-02T00:25:28.053Z,82.10
2018-10-02T00:27:55.750Z,81.70
2018-10-02T00:30:23.487Z,81.40
2018-10-02T00:32:51.198Z,81.70
2018-10-02T00:35:19.787Z,81.40
2018-10-02T00:37:47.520Z,81.30
2018-10-02T00:40:15.185Z,81.10
2018-10-02T00:42:42.976Z,80.70
2018-10-02T00:45:10.627Z,80.40
2018-10-02T00:47:38.388Z,81.20
2018-10-02T00:50:06.121Z,81.10
2018-10-02T00:52:33.830Z,81.20
2018-10-02T00:55:01.529Z,81.00
2018-10-02T00:57:29.403Z,81.40
2018-10-02T00:59:57.205Z,81.00
2018-10-02T01:02:25.059Z,79.90
2018-10-02T01:04:52.770Z,79.80
2018-10-02T01:07:20.567Z,79.70
2018-10-02T01:09:48.443Z,80.10
2018-10-02T01:12:16.154Z,81.30
2018-10-02T01:14:43.912Z,81.90
2018-10-02T01:17:11.669Z,82.10
2018-10-02T01:19:45.680Z,81.90
2018-10-02T01:22:13.521Z,82.10
2018-10-02T01:24:41.317Z,81.80
2018-10-02T01:27:09.171Z,81.80
2018-10-02T01:29:37.044Z,82.40
2018-10-02T01:32:05.044Z,83.10
2018-10-02T01:34:32.920Z,82.90
2018-10-02T01:37:00.580Z,83.30
2018-10-02T01:39:28.344Z,83.80
2018-10-02T01:41:56.004Z,83.80
2018-10-02T01:44:23.768Z,83.20
2018-10-02T01:46:51.621Z,83.00
2018-10-02T01:49:19.560Z,83.30
2018-10-02T01:51:47.489Z,83.20
2018-10-02T01:54:15.621Z,83.90
2018-10-02T01:56:43.705Z,83.80
2018-10-02T01:59:11.537Z,84.40
2018-10-02T02:01:39.354Z,84.70
2018-10-02T02:04:07.300Z,85.20
2018-10-02T02:06:35.421Z,85.20
2018-10-02T02:09:04.681Z,85.20
2018-10-02T02:11:32.539Z,85.80
2018-10-02T02:14:00.340Z,86.20
2018-10-02T02:16:28.158Z,86.10
2018-10-02T02:18:56.141Z,85.90
2018-10-02T02:21:24.060Z,85.90
2018-10-02T02:23:52.006Z,86.20
2018-10-02T02:26:20.052Z,86.20
2018-10-02T02:28:48.087Z,86.30
2018-10-02T02:31:15.818Z,86.60
2018-10-02T02:33:43.659Z,86.70
2018-10-02T02:36:11.476Z,86.70
2018-10-02T02:38:39.135Z,86.80
2018-10-02T02:41:06.883Z,86.60
2018-10-02T02:43:34.591Z,86.40
2018-10-02T02:46:02.731Z,86.40
2018-10-02T02:48:36.167Z,86.10
2018-10-02T02:51:09.929Z,85.80
2018-10-02T02:53:38.029Z,85.80
2018-10-02T02:56:06.021Z,85.70
2018-10-02T02:58:33.897Z,85.80
2018-10-02T03:01:01.656Z,85.80
2018-10-02T03:03:29.580Z,85.20
2018-10-02T03:05:57.589Z,84.90
2018-10-02T03:08:25.441Z,84.80
2018-10-02T03:10:53.417Z,84.70
2018-10-02T03:13:21.052Z,84.10
2018-10-02T03:15:48.838Z,84.20
2018-10-02T03:18:16.653Z,84.40
2018-10-02T03:20:44.344Z,84.10
2018-10-02T03:23:12.025Z,83.80
2018-10-02T03:25:39.884Z,84.70
2018-10-02T03:28:07.734Z,85.10
2018-10-02T03:30:35.581Z,85.00
2018-10-02T03:33:03.417Z,84.80
2018-10-02T03:35:31.189Z,84.70
2018-10-02T03:37:59.090Z,85.10
2018-10-02T03:40:27.056Z,85.00
2018-10-02T03:42:54.846Z,84.70
2018-10-02T03:45:22.770Z,85.20
2018-10-02T03:47:50.460Z,85.50
2018-10-02T03:50:18.353Z,85.40
2018-10-02T03:52:46.479Z,85.30
2018-10-02T03:55:14.545Z,85.50
2018-10-02T03:57:42.614Z,85.60
2018-10-02T04:00:10.581Z,85.40
2018-10-02T04:02:38.497Z,85.40
2018-10-02T04:05:06.481Z,84.80
2018-10-02T04:07:34.324Z,84.00
2018-10-02T04:10:02.484Z,84.60
2018-10-02T04:12:30.278Z,85.00
2018-10-02T04:14:58.061Z,85.30
2018-10-02T04:17:25.819Z,85.00
2018-10-02T04:19:53.612Z,85.20
2018-10-02T04:22:21.661Z,85.30
2018-10-02T04:24:49.715Z,85.60
2018-10-02T04:27:17.825Z,85.70
2018-10-02T04:29:45.861Z,85.20
2018-10-02T04:32:13.843Z,85.50
2018-10-02T04:34:41.529Z,85.20
2018-10-02T04:37:09.265Z,85.90
2018-10-02T04:39:38.025Z,84.90
2018-10-02T04:42:07.288Z,84.90
2018-10-02T04:44:35.776Z,85.30
2018-10-02T04:47:04.162Z,85.00
2018-10-02T04:49:32.065Z,84.70
2018-10-02T04:51:59.989Z,85.00
2018-10-02T04:54:27.977Z,84.70
2018-10-02T04:56:55.731Z,84.80
2018-10-02T04:59:23.565Z,84.90
2018-10-02T05:01:51.705Z,85.20
2018-10-02T05:04:19.761Z,85.20
2018-10-02T05:06:47.605Z,85.20
2018-10-02T05:09:16.204Z,85.40
2018-10-02T05:11:44.057Z,85.60
2018-10-02T05:14:11.995Z,86.10
2018-10-02T05:16:39.882Z,85.90
2018-10-02T05:19:07.774Z,85.70
2018-10-02T05:21:35.939Z,85.40
2018-10-02T05:24:04.017Z,85.40
2018-10-02T05:26:32.597Z,84.80
2018-10-02T05:29:00.481Z,84.60
2018-10-02T05:31:28.452Z,84.60
2018-10-02T05:33:56.405Z,85.40
2018-10-02T05:36:24.213Z,86.30
2018-10-02T05:38:52.025Z,86.00
2018-10-02T05:41:19.791Z,86.00
2018-10-02T05:43:47.767Z,85.50
2018-10-02T05:46:15.464Z,85.30
2018-10-02T05:48:43.428Z,85.40
2018-10-02T05:51:11.430Z,85.50
2018-10-02T05:53:39.246Z,85.70
2018-10-02T05:56:06.909Z,85.70
2018-10-02T05:58:34.657Z,86.40
2018-10-02T06:01:02.341Z,87.00
2018-10-02T06:03:30.259Z,87.20
2018-10-02T06:05:58.113Z,87.70
2018-10-02T06:08:25.905Z,87.90
2018-10-02T06:10:53.919Z,87.90
2018-10-02T06:13:21.666Z,87.60
2018-10-02T06:15:49.396Z,88.00
2018-10-02T06:18:17.113Z,88.30
2018-10-02T06:20:44.864Z,88.90
2018-10-02T06:23:13.452Z,88.20
2018-10-02T06:25:41.052Z,87.90
2018-10-02T06:28:08.740Z,88.10
2018-10-02T06:30:36.423Z,88.20
2018-10-02T06:33:04.625Z,88.50
2018-10-02T06:35:32.878Z,88.60
2018-10-02T06:38:01.103Z,89.00
2018-10-02T06:40:29.029Z,88.70
2018-10-02T06:42:56.941Z,88.80
2018-10-02T06:45:24.853Z,88.60
2018-10-02T06:47:52.737Z,87.50
2018-10-02T06:50:20.862Z,86.90
2018-10-02T06:52:49.343Z,87.80
2018-10-02T06:55:17.176Z,87.00
2018-10-02T06:57:45.226Z,86.30
2018-10-02T07:00:12.977Z,86.90
2018-10-02T07:02:40.777Z,86.50
2018-10-02T07:05:08.709Z,86.10
2018-10-02T07:07:36.440Z,85.90
2018-10-02T07:10:04.581Z,85.70
2018-10-02T07:12:32.588Z,86.10
2018-10-02T07:15:00.478Z,87.70
2018-10-02T07:17:30.101Z,86.10
2018-10-02T07:19:57.821Z,86.10
2018-10-02T07:22:25.522Z,86.10
2018-10-02T07:24:53.216Z,86.30
2018-10-02T07:27:21.187Z,86.70
2018-10-02T07:29:48.668Z,87.20
2018-10-02T07:32:16.378Z,87.60
2018-10-02T07:34:44.126Z,86.00
2018-10-02T07:37:11.828Z,85.60
2018-10-02T07:39:39.577Z,86.00
2018-10-02T07:42:07.400Z,84.90
2018-10-02T07:44:35.046Z,85.40
2018-10-02T07:47:02.932Z,84.90
2018-10-02T07:49:30.579Z,84.70
2018-10-02T07:51:58.218Z,84.60
2018-10-02T07:54:26.257Z,84.80
2018-10-02T07:56:54.012Z,84.60
2018-10-02T07:59:21.707Z,85.00
2018-10-02T08:01:49.411Z,84.20
2018-10-02T08:04:17.029Z,84.40
2018-10-02T08:06:44.643Z,84.10
2018-10-02T08:09:12.604Z,84.00
2018-10-02T08:11:40.296Z,84.20
2018-10-02T08:14:08.552Z,83.50
2018-10-02T08:16:36.858Z,83.00
2018-10-02T08:19:04.619Z,83.40
2018-10-02T08:21:32.631Z,84.20
2018-10-02T08:24:00.696Z,84.30
2018-10-02T08:26:29.095Z,83.20
2018-10-02T08:28:59.479Z,84.30
2018-10-02T08:31:27.386Z,83.20
2018-10-02T08:33:56.280Z,82.00
2018-10-02T08:36:24.767Z,81.80
2018-10-02T08:38:52.596Z,81.00
2018-10-02T08:41:20.909Z,79.50
2018-10-02T08:43:51.153Z,79.40
2018-10-02T08:46:20.077Z,78.50
2018-10-02T08:48:48.936Z,77.80
2018-10-02T08:51:17.493Z,76.30
2018-10-02T08:53:46.733Z,75.60
2018-10-02T08:56:15.270Z,76.20
2018-10-02T08:58:44.814Z,76.10
2018-10-02T09:01:13.418Z,76.80
2018-10-02T09:03:45.748Z,75.30
2018-10-02T09:06:14.144Z,74.20
2018-10-02T09:08:43.687Z,75.60
2018-10-02T09:11:12.283Z,73.50
2018-10-02T09:13:40.455Z,73.00
2018-10-02T09:16:08.692Z,73.30
2018-10-02T09:18:37.080Z,72.40
2018-10-02T09:21:05.309Z,72.90
2018-10-02T09:23:33.965Z,73.70
2018-10-02T09:26:02.126Z,72.80
2018-10-02T09:28:30.384Z,72.80
2018-10-02T09:31:04.815Z,71.70
2018-10-02T09:33:38.133Z,73.50
2018-10-02T09:36:11.569Z,73.00
2018-10-02T09:38:45.375Z,72.70
2018-10-02T09:41:18.853Z,71.10
2018-10-02T09:43:56.133Z,70.90
2018-10-02T09:46:24.695Z,70.30
2018-10-02T09:48:53.978Z,70.10
2018-10-02T09:51:23.349Z,71.00
2018-10-02T09:53:51.279Z,71.90
2018-10-02T09:56:19.338Z,70.40
2018-10-02T09:58:47.441Z,70.60
2018-10-02T10:01:20.932Z,69.60
2018-10-02T10:03:48.792Z,68.80
2018-10-02T10:06:16.718Z,67.10
2018-10-02T10:08:44.705Z,64.20
2018-10-02T10:11:13.289Z,66.10
2018-10-02T10:13:41.223Z,65.00
2018-10-02T10:16:09.092Z,64.20
2018-10-02T10:18:37.033Z,65.50
2018-10-02T10:21:04.968Z,64.40
2018-10-02T10:23:32.774Z,65.10
2018-10-02T10:26:00.823Z,64.80
2018-10-02T10:28:28.978Z,64.60
2018-10-02T10:30:56.785Z,65.30
2018-10-02T10:33:25.529Z,65.30
2018-10-02T10:35:53.663Z,65.70
2018-10-02T10:38:21.697Z,64.50
2018-10-02T10:40:49.501Z,65.80
2018-10-02T10:43:17.652Z,64.30
2018-10-02T10:45:45.502Z,65.30
2018-10-02T10:48:13.317Z,65.70
2018-10-02T10:50:41.344Z,64.60
2018-10-02T10:53:09.121Z,64.90
2018-10-02T10:55:38.322Z,65.30
2018-10-02T10:58:06.301Z,64.00
2018-10-02T11:00:34.429Z,65.50
2018-10-02T11:03:02.235Z,64.90
2018-10-02T11:05:29.904Z,63.40
2018-10-02T11:07:58.058Z,63.50
2018-10-02T11:10:27.882Z,64.50
2018-10-02T11:12:55.845Z,62.80
2018-10-02T11:15:24.913Z,62.30
2018-10-02T11:17:52.777Z,62.10
2018-10-02T11:20:24.102Z,61.30
2018-10-02T11:22:52.379Z,62.80
2018-10-02T11:25:20.133Z,63.00
2018-10-02T11:27:49.282Z,63.60
2018-10-02T11:30:17.217Z,63.20
2018-10-02T11:32:44.972Z,63.50
2018-10-02T11:35:13.209Z,61.70
2018-10-02T11:37:41.221Z,62.80
2018-10-02T11:40:08.983Z,63.20
2018-10-02T11:42:36.713Z,63.50
2018-10-02T11:45:04.976Z,62.50
2018-10-02T11:47:32.873Z,61.80
2018-10-02T11:50:01.353Z,62.80
2018-10-02T11:52:29.445Z,63.70
2018-10-02T11:54:57.301Z,62.20
2018-10-02T11:57:25.171Z,62.30
2018-10-02T11:59:52.958Z,61.50
2018-10-02T12:02:20.835Z,63.80
2018-10-02T12:04:48.752Z,62.90
2018-10-02T12:07:16.634Z,61.90
2018-10-02T12:09:45.118Z,62.70
2018-10-02T12:12:13.138Z,62.20
2018-10-02T12:14:41.007Z,63.10
2018-10-02T12:17:09.889Z,63.80
2018-10-02T12:19:37.888Z,65.00
2018-10-02T12:22:06.738Z,64.40
2018-10-02T12:24:34.466Z,63.00
2018-10-02T12:27:04.872Z,62.20
2018-10-02T12:29:32.691Z,60.70
2018-10-02T12:32:00.288Z,60.80
2018-10-02T12:34:28.041Z,60.80
2018-10-02T12:36:55.950Z,60.90
2018-10-02T12:39:24.078Z,61.90
2018-10-02T12:41:52.344Z,60.80
2018-10-02T12:44:20.354Z,61.90
2018-10-02T12:46:48.526Z,60.50
2018-10-02T12:49:17.006Z,59.80
2018-10-02T12:51:45.819Z,60.60
2018-10-02T12:54:19.594Z,59.20
2018-10-02T12:56:47.786Z,58.20
2018-10-02T12:59:16.228Z,58.40
2018-10-02T13:01:45.810Z,59.60
2018-10-02T13:04:14.207Z,59.80
2018-10-02T13:06:42.892Z,59.10
2018-10-02T13:09:10.748Z,60.80
2018-10-02T13:11:39.235Z,59.90
2018-10-02T13:14:07.587Z,59.40
2018-10-02T13:16:36.654Z,59.40
2018-10-02T13:19:05.266Z,59.70
2018-10-02T13:21:33.191Z,61.10
2018-10-02T13:24:01.106Z,61.00
2018-10-02T13:26:29.617Z,61.10
2018-10-02T13:28:57.453Z,61.20
2018-10-02T13:31:25.682Z,61.30
2018-10-02T13:33:53.444Z,61.50
2018-10-02T13:36:21.225Z,61.60
2018-10-02T13:38:49.021Z,62.20
2018-10-02T13:41:16.983Z,61.80
2018-10-02T13:43:45.122Z,63.60
2018-10-02T13:46:13.153Z,62.90
2018-10-02T13:48:41.029Z,62.60
2018-10-02T13:51:09.046Z,63.00
2018-10-02T13:53:36.901Z,63.20
2018-10-02T13:56:05.856Z,63.70
2018-10-02T13:58:33.595Z,63.80
2018-10-02T14:01:01.710Z,62.20
2018-10-02T14:03:30.580Z,63.10
2018-10-02T14:06:00.488Z,63.10
2018-10-02T14:08:30.176Z,64.40
2018-10-02T14:10:59.083Z,64.50
2018-10-02T14:13:30.672Z,63.00
2018-10-02T14:15:58.983Z,63.90
2018-10-02T14:18:27.620Z,63.40
2018-10-02T14:20:57.135Z,64.10
2018-10-02T14:23:26.387Z,63.90
2018-10-02T14:25:54.355Z,64.10
2018-10-02T14:28:22.497Z,64.10
2018-10-02T14:30:53.257Z,64.30
2018-10-02T14:33:21.546Z,66.00
2018-10-02T14:35:50.143Z,65.80
2018-10-02T14:38:18.482Z,66.30
2018-10-02T14:40:46.838Z,66.50
2018-10-02T14:43:16.099Z,67.50
2018-10-02T14:45:50.592Z,69.00
2018-10-02T14:48:20.671Z,69.70
2018-10-02T14:50:48.979Z,70.50
2018-10-02T14:53:17.041Z,72.70
2018-10-02T14:55:50.446Z,73.10
2018-10-02T14:58:22.011Z,74.60
2018-10-02T15:00:51.750Z,75.40
2018-10-02T15:03:20.933Z,75.10
2018-10-02T15:05:49.543Z,75.40
2018-10-02T15:08:17.517Z,76.40
2018-10-02T15:10:50.645Z,75.40
2018-10-02T15:13:22.001Z,75.50
2018-10-02T15:15:51.753Z,75.40
2018-10-02T15:18:20.173Z,74.40
2018-10-02T15:20:49.328Z,74.40
2018-10-02T15:23:18.399Z,74.20
2018-10-02T15:25:47.058Z,73.60
2018-10-02T15:28:15.482Z,73.80
2018-10-02T15:30:43.634Z,73.90
2018-10-02T15:33:15.495Z,74.00
2018-10-02T15:35:44.161Z,73.30
2018-10-02T15:38:14.179Z,73.10
2018-10-02T15:40:46.018Z,72.70
2018-10-02T15:43:19.794Z,70.90
2018-10-02T15:45:48.244Z,71.80
2018-10-02T15:48:17.357Z,70.70
2018-10-02T15:50:46.675Z,71.50
2018-10-02T15:53:15.954Z,70.50
2018-10-02T15:55:44.577Z,71.50
2018-10-02T15:58:15.211Z,70.80
2018-10-02T16:00:44.541Z,70.10
2018-10-02T16:03:13.319Z,70.50
2018-10-02T16:05:43.886Z,70.20
2018-10-02T16:08:12.906Z,69.20
2018-10-02T16:10:42.327Z,68.50
2018-10-02T16:13:10.560Z,68.80
2018-10-02T16:15:38.857Z,69.60
2018-10-02T16:18:06.788Z,69.90
2018-10-02T16:20:37.321Z,69.40
2018-10-02T16:23:08.357Z,69.40
2018-10-02T16:25:37.382Z,69.00
2018-10-02T16:28:06.698Z,69.60
2018-10-02T16:30:35.044Z,69.50
2018-10-02T16:33:03.086Z,68.90
2018-10-02T16:35:31.089Z,68.70
2018-10-02T16:37:59.311Z,69.70
2018-10-02T16:40:28.670Z,69.30
2018-10-02T16:43:04.428Z,69.90
2018-10-02T16:45:33.755Z,69.00
2018-10-02T16:48:03.659Z,69.10
2018-10-02T16:50:32.846Z,69.20
2018-10-02T16:53:00.673Z,69.30
2018-10-02T16:55:28.488Z,68.80
2018-10-02T16:57:57.009Z,69.70
2018-10-02T17:00:25.044Z,69.20
2018-10-02T17:02:53.321Z,69.10
2018-10-02T17:05:21.221Z,68.40
2018-10-02T17:07:49.277Z,68.00
2018-10-02T17:10:17.305Z,67.80
2018-10-02T17:12:45.305Z,67.40
2018-10-02T17:15:13.349Z,67.60
2018-10-02T17:17:41.458Z,67.50
2018-10-02T17:20:09.200Z,68.00
2018-10-02T17:22:37.249Z,67.90
2018-10-02T17:25:05.554Z,69.50
2018-10-02T17:27:33.309Z,69.20
2018-10-02T17:30:01.526Z,69.40
2018-10-02T17:32:31.234Z,69.30
2018-10-02T17:35:01.164Z,69.50
2018-10-02T17:37:30.759Z,69.70
2018-10-02T17:39:58.953Z,69.50
2018-10-02T17:42:28.037Z,69.50
2018-10-02T17:44:56.665Z,68.90
2018-10-02T17:47:24.265Z,69.50
2018-10-02T17:49:53.666Z,70.20
2018-10-02T17:52:21.775Z,70.40
2018-10-02T17:54:50.740Z,70.40
2018-10-02T17:57:18.605Z,70.20
2018-10-02T17:59:48.349Z,71.00
2018-10-02T18:02:16.405Z,70.60
2018-10-02T18:04:45.037Z,70.60
2018-10-02T18:07:14.060Z,70.50
2018-10-02T18:09:45.886Z,70.70
2018-10-02T18:12:14.223Z,71.20
2018-10-02T18:14:42.294Z,71.00
2018-10-02T18:17:10.289Z,71.10
2018-10-02T18:19:38.203Z,70.80
2018-10-02T18:22:06.239Z,71.70
2018-10-02T18:24:34.109Z,72.10
2018-10-02T18:27:01.919Z,71.60
2018-10-02T18:29:29.806Z,71.50
2018-10-02T18:31:57.628Z,71.40
2018-10-02T18:34:25.823Z,71.20
2018-10-02T18:36:54.042Z,70.80
2018-10-02T18:39:22.632Z,70.80
2018-10-02T18:41:52.267Z,70.80
2018-10-02T18:44:20.314Z,70.90
2018-10-02T18:46:50.061Z,71.10
2018-10-02T18:49:18.028Z,71.20
2018-10-02T18:51:45.946Z,71.00
2018-10-02T18:54:14.904Z,70.90
2018-10-02T18:56:43.506Z,71.30
2018-10-02T18:59:11.288Z,71.60
2018-10-02T19:01:39.913Z,71.10
2018-10-02T19:04:08.525Z,71.20
2018-10-02T19:06:37.415Z,71.30
2018-10-02T19:09:15.909Z,71.60
2018-10-02T19:11:49.925Z,72.00
2018-10-02T19:14:18.970Z,71.20
2018-10-02T19:17:06.830Z,71.50
2018-10-02T19:19:40.630Z,72.00
2018-10-02T19:22:34.688Z,72.40
2018-10-02T19:28:32.525Z,71.50
2018-10-02T19:31:16.471Z,71.50
2018-10-02T19:34:02.263Z,71.40
2018-10-02T19:37:05.576Z,72.20
2018-10-02T19:39:43.731Z,72.00
2018-10-02T19:42:45.186Z,72.10
2018-10-02T19:48:12.893Z,72.20
2018-10-02T19:51:06.682Z,72.60
2018-10-02T19:56:16.975Z,73.50
2018-10-02T19:58:50.511Z,72.90
2018-10-02T20:01:25.569Z,72.60
2018-10-02T20:03:54.686Z,73.30
2018-10-02T20:06:23.254Z,73.10
2018-10-02T20:08:52.239Z,73.50
2018-10-02T20:11:20.392Z,73.80
2018-10-02T20:13:48.654Z,74.00
2018-10-02T20:16:17.344Z,73.90
2018-10-02T20:18:46.809Z,74.40
2018-10-02T20:21:14.915Z,74.20
2018-10-02T20:23:50.493Z,74.60
2018-10-02T20:26:20.086Z,75.10
2018-10-02T20:28:49.096Z,75.00
2018-10-02T20:31:20.473Z,75.20
2018-10-02T20:33:48.900Z,74.80
2018-10-02T20:36:17.794Z,75.40
2018-10-02T20:38:47.210Z,75.90
2018-10-02T20:41:16.579Z,76.10
2018-10-02T20:43:46.131Z,76.30
2018-10-02T20:46:15.780Z,75.80
2018-10-02T20:48:44.905Z,75.70
2018-10-02T20:51:17.224Z,75.70
2018-10-02T20:53:45.438Z,76.20
2018-10-02T20:56:13.520Z,76.30
2018-10-02T20:58:41.237Z,76.10
2018-10-02T21:01:09.497Z,76.30
2018-10-02T21:03:37.308Z,76.50
2018-10-02T21:06:08.909Z,76.50
2018-10-02T21:08:37.327Z,76.80
2018-10-02T21:11:06.643Z,76.80
2018-10-02T21:13:34.622Z,76.90
2018-10-02T21:16:02.388Z,77.20
2018-10-02T21:18:30.621Z,77.30
2018-10-02T21:20:58.628Z,77.00
2018-10-02T21:23:27.122Z,76.90
2018-10-02T21:25:55.583Z,77.10
2018-10-02T21:28:23.686Z,77.00
2018-10-02T21:30:51.578Z,77.10
2018-10-02T21:33:19.612Z,76.70
2018-10-02T21:35:47.827Z,76.90
2018-10-02T21:38:16.162Z,76.30
2018-10-02T21:40:44.162Z,76.40
2018-10-02T21:43:12.316Z,76.70
2018-10-02T21:45:40.523Z,76.40
2018-10-02T21:48:08.844Z,76.60
2018-10-02T21:50:36.989Z,76.50
2018-10-02T21:53:05.029Z,76.80
2018-10-02T21:55:32.821Z,77.00
2018-10-02T21:58:01.169Z,77.00
2018-10-02T22:00:34.622Z,77.00
2018-10-02T22:03:02.616Z,77.10
2018-10-02T22:05:30.904Z,77.30
2018-10-02T22:07:58.911Z,76.40
2018-10-02T22:10:28.334Z,76.90
2018-10-02T22:12:57.007Z,77.20
2018-10-02T22:15:25.172Z,76.70
2018-10-02T22:17:53.241Z,76.80
2018-10-02T22:20:21.453Z,76.50
2018-10-02T22:22:49.647Z,76.70
2018-10-02T22:25:17.879Z,76.20
2018-10-02T22:27:45.639Z,76.60
2018-10-02T22:30:15.889Z,76.70
2018-10-02T22:32:44.562Z,76.20
2018-10-02T22:35:13.044Z,76.80
2018-10-02T22:37:41.242Z,75.90
2018-10-02T22:40:09.762Z,76.60
2018-10-02T22:42:37.948Z,76.70
2018-10-02T22:45:06.638Z,76.50
2018-10-02T22:47:34.904Z,77.30
2018-10-02T22:50:03.578Z,76.40
2018-10-02T22:52:31.904Z,77.70
2018-10-02T22:55:00.066Z,78.50
2018-10-02T22:57:29.119Z,78.50
2018-10-02T22:59:57.275Z,80.20
2018-10-02T23:02:25.794Z,79.60
2018-10-02T23:04:55.404Z,79.30
2018-10-02T23:07:23.535Z,80.00
2018-10-02T23:09:52.465Z,79.60
2018-10-02T23:12:21.151Z,79.20
2018-10-02T23:14:49.158Z,78.90
2018-10-02T23:17:17.487Z,79.00
2018-10-02T23:19:45.430Z,78.60
2018-10-02T23:22:13.244Z,78.00
2018-10-02T23:24:42.526Z,77.30
2018-10-02T23:27:11.706Z,77.60
2018-10-02T23:29:39.930Z,77.70
2018-10-02T23:32:09.347Z,77.70
2018-10-02T23:34:37.520Z,76.80
2018-10-02T23:37:05.711Z,76.90
2018-10-02T23:39:33.980Z,76.50
2018-10-02T23:42:02.266Z,76.50
2018-10-02T23:44:30.403Z,76.40
2018-10-02T23:46:58.260Z,76.70
2018-10-02T23:49:26.520Z,76.80
2018-10-02T23:51:59.462Z,76.60
2018-10-02T23:54:27.815Z,76.80
2018-10-02T23:56:57.046Z,77.00
2018-10-02T23:59:25.347Z,76.50
